sensor_id;sensor_type;location;lat;lon;timestamp;P1;durP1;ratioP1;P2;durP2;ratioP2
31660;SDS011;18267;52.234;7.444;2023-05-14T00:01:13;7.40;;;6.70;;
31660;SDS011;18267;52.234;7.444;2023-05-14T00:03:42;10.10;;;6.85;;
31660;SDS011;18267;52.234;7.444;2023-05-14T00:06:14;13.53;;;7.50;;
31660;SDS011;18267;52.234;7.444;2023-05-14T00:08:40;14.35;;;6.68;;
31660;SDS011;18267;52.234;7.444;2023-05-14T00:11:05;9.80;;;6.28;;
31660;SDS011;18267;52.234;7.444;2023-05-14T00:13:33;7.53;;;6.53;;
31660;SDS011;18267;52.234;7.444;2023-05-14T00:15:59;7.30;;;6.55;;
31660;SDS011;18267;52.234;7.444;2023-05-14T00:18:24;13.48;;;6.90;;
31660;SDS011;18267;52.234;7.444;2023-05-14T00:20:50;10.15;;;7.20;;
31660;SDS011;18267;52.234;7.444;2023-05-14T00:23:18;9.52;;;6.75;;
31660;SDS011;18267;52.234;7.444;2023-05-14T00:25:45;10.40;;;7.22;;
31660;SDS011;18267;52.234;7.444;2023-05-14T00:28:10;7.72;;;6.78;;
31660;SDS011;18267;52.234;7.444;2023-05-14T00:30:36;10.00;;;7.40;;
31660;SDS011;18267;52.234;7.444;2023-05-14T00:33:02;10.88;;;6.63;;
31660;SDS011;18267;52.234;7.444;2023-05-14T00:35:27;7.70;;;6.72;;
31660;SDS011;18267;52.234;7.444;2023-05-14T00:37:53;7.70;;;6.90;;
31660;SDS011;18267;52.234;7.444;2023-05-14T00:40:19;9.98;;;6.97;;
31660;SDS011;18267;52.234;7.444;2023-05-14T00:42:46;13.25;;;6.10;;
31660;SDS011;18267;52.234;7.444;2023-05-14T00:45:12;8.70;;;6.20;;
31660;SDS011;18267;52.234;7.444;2023-05-14T00:47:37;8.60;;;6.72;;
31660;SDS011;18267;52.234;7.444;2023-05-14T00:50:04;8.40;;;6.72;;
31660;SDS011;18267;52.234;7.444;2023-05-14T00:52:30;7.22;;;6.53;;
31660;SDS011;18267;52.234;7.444;2023-05-14T00:54:56;8.55;;;7.32;;
31660;SDS011;18267;52.234;7.444;2023-05-14T00:57:23;10.07;;;6.90;;
31660;SDS011;18267;52.234;7.444;2023-05-14T00:59:48;9.30;;;6.95;;
31660;SDS011;18267;52.234;7.444;2023-05-14T01:02:14;11.35;;;6.93;;
31660;SDS011;18267;52.234;7.444;2023-05-14T01:04:40;8.90;;;7.07;;
31660;SDS011;18267;52.234;7.444;2023-05-14T01:07:08;10.25;;;6.90;;
31660;SDS011;18267;52.234;7.444;2023-05-14T01:09:53;10.85;;;6.47;;
31660;SDS011;18267;52.234;7.444;2023-05-14T01:12:29;9.48;;;6.63;;
31660;SDS011;18267;52.234;7.444;2023-05-14T01:15:03;7.65;;;6.65;;
31660;SDS011;18267;52.234;7.444;2023-05-14T01:17:37;10.15;;;6.68;;
31660;SDS011;18267;52.234;7.444;2023-05-14T01:20:06;9.50;;;7.03;;
31660;SDS011;18267;52.234;7.444;2023-05-14T01:22:33;13.85;;;8.30;;
31660;SDS011;18267;52.234;7.444;2023-05-14T01:24:58;10.90;;;7.05;;
31660;SDS011;18267;52.234;7.444;2023-05-14T01:30:36;6.82;;;6.13;;
31660;SDS011;18267;52.234;7.444;2023-05-14T01:33:05;13.27;;;6.93;;
31660;SDS011;18267;52.234;7.444;2023-05-14T01:35:35;11.13;;;7.32;;
31660;SDS011;18267;52.234;7.444;2023-05-14T01:38:02;11.88;;;7.45;;
31660;SDS011;18267;52.234;7.444;2023-05-14T01:40:30;8.65;;;6.40;;
31660;SDS011;18267;52.234;7.444;2023-05-14T01:42:57;12.15;;;6.78;;
31660;SDS011;18267;52.234;7.444;2023-05-14T01:45:24;12.55;;;7.90;;
31660;SDS011;18267;52.234;7.444;2023-05-14T01:47:50;13.98;;;7.20;;
31660;SDS011;18267;52.234;7.444;2023-05-14T01:50:16;9.48;;;7.20;;
31660;SDS011;18267;52.234;7.444;2023-05-14T01:52:42;11.30;;;7.97;;
31660;SDS011;18267;52.234;7.444;2023-05-14T01:55:07;12.75;;;7.40;;
31660;SDS011;18267;52.234;7.444;2023-05-14T01:57:33;7.90;;;6.65;;
31660;SDS011;18267;52.234;7.444;2023-05-14T01:59:59;12.32;;;7.57;;
31660;SDS011;18267;52.234;7.444;2023-05-14T02:02:25;8.60;;;6.75;;
31660;SDS011;18267;52.234;7.444;2023-05-14T02:04:51;8.07;;;7.28;;
31660;SDS011;18267;52.234;7.444;2023-05-14T02:07:16;11.40;;;6.45;;
31660;SDS011;18267;52.234;7.444;2023-05-14T02:09:42;9.57;;;7.25;;
31660;SDS011;18267;52.234;7.444;2023-05-14T02:12:08;8.05;;;7.10;;
31660;SDS011;18267;52.234;7.444;2023-05-14T02:14:38;11.38;;;6.78;;
31660;SDS011;18267;52.234;7.444;2023-05-14T02:17:04;13.68;;;7.22;;
31660;SDS011;18267;52.234;7.444;2023-05-14T02:19:30;9.20;;;7.25;;
31660;SDS011;18267;52.234;7.444;2023-05-14T02:21:57;9.15;;;7.28;;
31660;SDS011;18267;52.234;7.444;2023-05-14T02:24:23;11.48;;;7.45;;
31660;SDS011;18267;52.234;7.444;2023-05-14T02:26:48;11.30;;;7.72;;
31660;SDS011;18267;52.234;7.444;2023-05-14T02:29:14;9.18;;;7.15;;
31660;SDS011;18267;52.234;7.444;2023-05-14T02:31:39;10.60;;;8.00;;
31660;SDS011;18267;52.234;7.444;2023-05-14T02:34:05;7.45;;;6.75;;
31660;SDS011;18267;52.234;7.444;2023-05-14T02:36:31;14.13;;;7.93;;
31660;SDS011;18267;52.234;7.444;2023-05-14T02:38:57;10.75;;;7.70;;
31660;SDS011;18267;52.234;7.444;2023-05-14T02:41:24;12.23;;;7.65;;
31660;SDS011;18267;52.234;7.444;2023-05-14T02:43:51;12.50;;;9.30;;
31660;SDS011;18267;52.234;7.444;2023-05-14T02:46:16;11.05;;;8.27;;
31660;SDS011;18267;52.234;7.444;2023-05-14T02:48:42;14.00;;;8.73;;
31660;SDS011;18267;52.234;7.444;2023-05-14T02:51:08;17.17;;;9.18;;
31660;SDS011;18267;52.234;7.444;2023-05-14T02:53:34;16.80;;;8.27;;
31660;SDS011;18267;52.234;7.444;2023-05-14T02:55:59;10.90;;;8.00;;
31660;SDS011;18267;52.234;7.444;2023-05-14T02:58:25;8.88;;;6.97;;
31660;SDS011;18267;52.234;7.444;2023-05-14T03:00:51;11.13;;;7.07;;
31660;SDS011;18267;52.234;7.444;2023-05-14T03:03:17;9.00;;;7.47;;
31660;SDS011;18267;52.234;7.444;2023-05-14T03:05:43;9.27;;;7.60;;
31660;SDS011;18267;52.234;7.444;2023-05-14T03:08:09;8.60;;;7.68;;
31660;SDS011;18267;52.234;7.444;2023-05-14T03:10:34;11.65;;;8.10;;
31660;SDS011;18267;52.234;7.444;2023-05-14T03:13:00;9.00;;;7.43;;
31660;SDS011;18267;52.234;7.444;2023-05-14T03:15:25;11.82;;;7.95;;
31660;SDS011;18267;52.234;7.444;2023-05-14T03:17:51;11.02;;;8.13;;
31660;SDS011;18267;52.234;7.444;2023-05-14T03:20:17;10.77;;;7.75;;
31660;SDS011;18267;52.234;7.444;2023-05-14T03:22:42;9.48;;;7.15;;
31660;SDS011;18267;52.234;7.444;2023-05-14T03:25:08;8.52;;;7.13;;
31660;SDS011;18267;52.234;7.444;2023-05-14T03:27:34;15.88;;;7.90;;
31660;SDS011;18267;52.234;7.444;2023-05-14T03:29:59;12.68;;;7.82;;
31660;SDS011;18267;52.234;7.444;2023-05-14T03:32:25;11.55;;;7.70;;
31660;SDS011;18267;52.234;7.444;2023-05-14T03:34:50;9.40;;;7.65;;
31660;SDS011;18267;52.234;7.444;2023-05-14T03:37:16;11.48;;;7.43;;
31660;SDS011;18267;52.234;7.444;2023-05-14T03:39:42;10.23;;;8.15;;
31660;SDS011;18267;52.234;7.444;2023-05-14T03:42:07;14.35;;;7.43;;
31660;SDS011;18267;52.234;7.444;2023-05-14T03:44:33;15.73;;;7.35;;
31660;SDS011;18267;52.234;7.444;2023-05-14T03:46:58;12.23;;;8.02;;
31660;SDS011;18267;52.234;7.444;2023-05-14T03:49:24;10.93;;;7.47;;
31660;SDS011;18267;52.234;7.444;2023-05-14T03:51:49;11.80;;;7.72;;
31660;SDS011;18267;52.234;7.444;2023-05-14T03:54:15;12.27;;;7.97;;
31660;SDS011;18267;52.234;7.444;2023-05-14T03:56:40;12.30;;;8.43;;
31660;SDS011;18267;52.234;7.444;2023-05-14T03:59:06;10.20;;;8.40;;
31660;SDS011;18267;52.234;7.444;2023-05-14T04:01:32;12.93;;;7.97;;
31660;SDS011;18267;52.234;7.444;2023-05-14T04:03:57;11.40;;;8.48;;
31660;SDS011;18267;52.234;7.444;2023-05-14T04:06:23;12.15;;;8.75;;
31660;SDS011;18267;52.234;7.444;2023-05-14T04:08:48;14.77;;;7.97;;
31660;SDS011;18267;52.234;7.444;2023-05-14T04:11:14;10.85;;;7.40;;
31660;SDS011;18267;52.234;7.444;2023-05-14T04:13:40;12.75;;;7.65;;
31660;SDS011;18267;52.234;7.444;2023-05-14T04:16:05;12.18;;;7.70;;
31660;SDS011;18267;52.234;7.444;2023-05-14T04:18:31;13.13;;;8.20;;
31660;SDS011;18267;52.234;7.444;2023-05-14T04:20:59;11.05;;;7.90;;
31660;SDS011;18267;52.234;7.444;2023-05-14T04:23:25;13.05;;;7.97;;
31660;SDS011;18267;52.234;7.444;2023-05-14T04:25:51;10.13;;;8.80;;
31660;SDS011;18267;52.234;7.444;2023-05-14T04:28:16;12.13;;;8.10;;
31660;SDS011;18267;52.234;7.444;2023-05-14T04:30:42;9.95;;;7.88;;
31660;SDS011;18267;52.234;7.444;2023-05-14T04:33:07;9.70;;;8.20;;
31660;SDS011;18267;52.234;7.444;2023-05-14T04:35:33;12.93;;;8.80;;
31660;SDS011;18267;52.234;7.444;2023-05-14T04:37:58;13.48;;;9.23;;
31660;SDS011;18267;52.234;7.444;2023-05-14T04:40:24;12.68;;;8.43;;
31660;SDS011;18267;52.234;7.444;2023-05-14T04:42:50;16.23;;;8.48;;
31660;SDS011;18267;52.234;7.444;2023-05-14T04:45:15;12.48;;;8.25;;
31660;SDS011;18267;52.234;7.444;2023-05-14T04:47:41;11.20;;;8.35;;
31660;SDS011;18267;52.234;7.444;2023-05-14T04:50:07;13.02;;;8.27;;
31660;SDS011;18267;52.234;7.444;2023-05-14T04:52:33;17.50;;;7.63;;
31660;SDS011;18267;52.234;7.444;2023-05-14T04:54:59;12.50;;;8.50;;
31660;SDS011;18267;52.234;7.444;2023-05-14T04:57:25;15.82;;;9.20;;
31660;SDS011;18267;52.234;7.444;2023-05-14T04:59:50;15.00;;;8.82;;
31660;SDS011;18267;52.234;7.444;2023-05-14T05:02:16;11.23;;;8.65;;
31660;SDS011;18267;52.234;7.444;2023-05-14T05:04:42;12.80;;;8.60;;
31660;SDS011;18267;52.234;7.444;2023-05-14T05:07:07;15.88;;;9.00;;
31660;SDS011;18267;52.234;7.444;2023-05-14T05:09:33;13.32;;;9.80;;
31660;SDS011;18267;52.234;7.444;2023-05-14T05:11:58;14.50;;;9.63;;
31660;SDS011;18267;52.234;7.444;2023-05-14T05:14:27;10.82;;;9.63;;
31660;SDS011;18267;52.234;7.444;2023-05-14T05:17:13;13.10;;;9.95;;
31660;SDS011;18267;52.234;7.444;2023-05-14T05:19:39;18.40;;;10.88;;
31660;SDS011;18267;52.234;7.444;2023-05-14T05:22:05;12.50;;;10.10;;
31660;SDS011;18267;52.234;7.444;2023-05-14T05:24:34;15.13;;;10.40;;
31660;SDS011;18267;52.234;7.444;2023-05-14T05:26:59;14.10;;;10.18;;
31660;SDS011;18267;52.234;7.444;2023-05-14T05:29:25;14.77;;;10.43;;
31660;SDS011;18267;52.234;7.444;2023-05-14T05:31:51;14.73;;;9.68;;
31660;SDS011;18267;52.234;7.444;2023-05-14T05:34:17;15.38;;;10.05;;
31660;SDS011;18267;52.234;7.444;2023-05-14T05:36:43;11.52;;;9.02;;
31660;SDS011;18267;52.234;7.444;2023-05-14T05:39:09;13.20;;;9.88;;
31660;SDS011;18267;52.234;7.444;2023-05-14T05:41:34;11.13;;;9.68;;
31660;SDS011;18267;52.234;7.444;2023-05-14T05:44:00;13.15;;;9.68;;
31660;SDS011;18267;52.234;7.444;2023-05-14T05:46:25;13.45;;;10.45;;
31660;SDS011;18267;52.234;7.444;2023-05-14T05:48:51;16.85;;;10.35;;
31660;SDS011;18267;52.234;7.444;2023-05-14T05:51:17;15.10;;;11.20;;
31660;SDS011;18267;52.234;7.444;2023-05-14T05:53:43;17.15;;;9.48;;
31660;SDS011;18267;52.234;7.444;2023-05-14T05:56:08;15.35;;;10.48;;
31660;SDS011;18267;52.234;7.444;2023-05-14T05:58:34;14.60;;;10.15;;
31660;SDS011;18267;52.234;7.444;2023-05-14T06:01:00;15.32;;;9.82;;
31660;SDS011;18267;52.234;7.444;2023-05-14T06:03:25;9.32;;;8.13;;
31660;SDS011;18267;52.234;7.444;2023-05-14T06:05:52;9.07;;;8.07;;
31660;SDS011;18267;52.234;7.444;2023-05-14T06:08:18;9.55;;;7.22;;
31660;SDS011;18267;52.234;7.444;2023-05-14T06:10:43;9.23;;;7.35;;
31660;SDS011;18267;52.234;7.444;2023-05-14T06:13:10;8.82;;;6.95;;
31660;SDS011;18267;52.234;7.444;2023-05-14T06:15:35;8.07;;;6.10;;
31660;SDS011;18267;52.234;7.444;2023-05-14T06:18:01;6.57;;;5.70;;
31660;SDS011;18267;52.234;7.444;2023-05-14T06:20:27;8.43;;;5.40;;
31660;SDS011;18267;52.234;7.444;2023-05-14T06:22:52;5.82;;;5.18;;
31660;SDS011;18267;52.234;7.444;2023-05-14T06:25:18;9.50;;;5.45;;
31660;SDS011;18267;52.234;7.444;2023-05-14T06:27:43;14.15;;;5.13;;
31660;SDS011;18267;52.234;7.444;2023-05-14T06:30:09;5.50;;;5.00;;
31660;SDS011;18267;52.234;7.444;2023-05-14T06:32:36;6.03;;;5.40;;
31660;SDS011;18267;52.234;7.444;2023-05-14T06:35:01;5.82;;;5.20;;
31660;SDS011;18267;52.234;7.444;2023-05-14T06:37:28;6.65;;;5.32;;
31660;SDS011;18267;52.234;7.444;2023-05-14T06:39:53;5.95;;;5.28;;
31660;SDS011;18267;52.234;7.444;2023-05-14T06:42:19;9.18;;;5.40;;
31660;SDS011;18267;52.234;7.444;2023-05-14T06:44:44;7.90;;;5.85;;
31660;SDS011;18267;52.234;7.444;2023-05-14T06:47:10;11.50;;;5.80;;
31660;SDS011;18267;52.234;7.444;2023-05-14T06:49:36;8.57;;;5.85;;
31660;SDS011;18267;52.234;7.444;2023-05-14T06:52:02;6.53;;;5.57;;
31660;SDS011;18267;52.234;7.444;2023-05-14T06:54:28;6.97;;;5.50;;
31660;SDS011;18267;52.234;7.444;2023-05-14T06:56:53;7.25;;;6.00;;
31660;SDS011;18267;52.234;7.444;2023-05-14T06:59:19;8.27;;;6.05;;
31660;SDS011;18267;52.234;7.444;2023-05-14T07:01:45;8.68;;;6.15;;
31660;SDS011;18267;52.234;7.444;2023-05-14T07:04:10;9.30;;;6.40;;
31660;SDS011;18267;52.234;7.444;2023-05-14T07:06:36;6.35;;;5.40;;
31660;SDS011;18267;52.234;7.444;2023-05-14T07:09:02;7.07;;;5.57;;
31660;SDS011;18267;52.234;7.444;2023-05-14T07:11:28;5.25;;;4.75;;
31660;SDS011;18267;52.234;7.444;2023-05-14T07:13:53;5.72;;;5.22;;
31660;SDS011;18267;52.234;7.444;2023-05-14T07:16:19;5.13;;;4.65;;
31660;SDS011;18267;52.234;7.444;2023-05-14T07:18:45;6.13;;;5.13;;
31660;SDS011;18267;52.234;7.444;2023-05-14T07:21:11;5.85;;;5.25;;
31660;SDS011;18267;52.234;7.444;2023-05-14T07:23:36;7.25;;;5.18;;
31660;SDS011;18267;52.234;7.444;2023-05-14T07:26:03;5.60;;;4.28;;
31660;SDS011;18267;52.234;7.444;2023-05-14T07:28:29;4.50;;;3.80;;
31660;SDS011;18267;52.234;7.444;2023-05-14T07:30:55;6.38;;;4.53;;
31660;SDS011;18267;52.234;7.444;2023-05-14T07:33:21;6.38;;;4.30;;
31660;SDS011;18267;52.234;7.444;2023-05-14T07:35:47;8.52;;;4.45;;
31660;SDS011;18267;52.234;7.444;2023-05-14T07:38:12;4.53;;;4.13;;
31660;SDS011;18267;52.234;7.444;2023-05-14T07:40:38;4.68;;;4.28;;
31660;SDS011;18267;52.234;7.444;2023-05-14T07:43:04;4.90;;;3.67;;
31660;SDS011;18267;52.234;7.444;2023-05-14T07:45:30;7.53;;;4.10;;
31660;SDS011;18267;52.234;7.444;2023-05-14T07:47:55;6.47;;;4.38;;
31660;SDS011;18267;52.234;7.444;2023-05-14T07:50:21;3.65;;;3.35;;
31660;SDS011;18267;52.234;7.444;2023-05-14T07:52:47;4.50;;;4.07;;
31660;SDS011;18267;52.234;7.444;2023-05-14T07:55:12;4.03;;;3.63;;
31660;SDS011;18267;52.234;7.444;2023-05-14T07:57:38;5.20;;;4.70;;
31660;SDS011;18267;52.234;7.444;2023-05-14T08:00:04;3.90;;;3.50;;
31660;SDS011;18267;52.234;7.444;2023-05-14T08:02:34;5.03;;;4.13;;
31660;SDS011;18267;52.234;7.444;2023-05-14T08:04:59;5.45;;;3.65;;
31660;SDS011;18267;52.234;7.444;2023-05-14T08:07:25;3.58;;;3.28;;
31660;SDS011;18267;52.234;7.444;2023-05-14T08:09:53;4.70;;;3.80;;
31660;SDS011;18267;52.234;7.444;2023-05-14T08:12:18;3.95;;;3.30;;
31660;SDS011;18267;52.234;7.444;2023-05-14T08:14:44;4.65;;;3.80;;
31660;SDS011;18267;52.234;7.444;2023-05-14T08:17:10;4.75;;;3.70;;
31660;SDS011;18267;52.234;7.444;2023-05-14T08:19:35;3.10;;;2.88;;
31660;SDS011;18267;52.234;7.444;2023-05-14T08:22:01;4.72;;;2.53;;
31660;SDS011;18267;52.234;7.444;2023-05-14T08:24:27;3.22;;;2.28;;
31660;SDS011;18267;52.234;7.444;2023-05-14T08:26:53;3.53;;;2.58;;
31660;SDS011;18267;52.234;7.444;2023-05-14T08:29:19;3.10;;;2.80;;
31660;SDS011;18267;52.234;7.444;2023-05-14T08:31:45;3.20;;;2.20;;
31660;SDS011;18267;52.234;7.444;2023-05-14T08:34:11;4.60;;;3.15;;
31660;SDS011;18267;52.234;7.444;2023-05-14T08:36:39;3.45;;;3.13;;
31660;SDS011;18267;52.234;7.444;2023-05-14T08:39:05;4.25;;;3.70;;
31660;SDS011;18267;52.234;7.444;2023-05-14T08:41:31;3.30;;;2.55;;
31660;SDS011;18267;52.234;7.444;2023-05-14T08:44:02;3.10;;;2.88;;
31660;SDS011;18267;52.234;7.444;2023-05-14T08:46:42;3.25;;;2.95;;
31660;SDS011;18267;52.234;7.444;2023-05-14T08:51:58;4.90;;;2.95;;
31660;SDS011;18267;52.234;7.444;2023-05-14T08:54:24;3.33;;;3.08;;
31660;SDS011;18267;52.234;7.444;2023-05-14T08:56:51;5.45;;;3.30;;
31660;SDS011;18267;52.234;7.444;2023-05-14T08:59:17;3.00;;;2.67;;
31660;SDS011;18267;52.234;7.444;2023-05-14T09:01:45;2.97;;;2.67;;
31660;SDS011;18267;52.234;7.444;2023-05-14T09:04:15;3.03;;;2.30;;
31660;SDS011;18267;52.234;7.444;2023-05-14T09:06:45;2.17;;;1.92;;
31660;SDS011;18267;52.234;7.444;2023-05-14T09:09:13;2.70;;;1.92;;
31660;SDS011;18267;52.234;7.444;2023-05-14T09:11:40;2.95;;;2.08;;
31660;SDS011;18267;52.234;7.444;2023-05-14T09:14:06;1.88;;;1.77;;
31660;SDS011;18267;52.234;7.444;2023-05-14T09:16:32;5.15;;;2.65;;
31660;SDS011;18267;52.234;7.444;2023-05-14T09:18:58;2.22;;;2.05;;
31660;SDS011;18267;52.234;7.444;2023-05-14T09:21:24;2.28;;;2.05;;
31660;SDS011;18267;52.234;7.444;2023-05-14T09:23:52;2.63;;;2.42;;
31660;SDS011;18267;52.234;7.444;2023-05-14T09:26:22;2.35;;;2.08;;
31660;SDS011;18267;52.234;7.444;2023-05-14T09:28:48;2.28;;;2.08;;
31660;SDS011;18267;52.234;7.444;2023-05-14T09:31:17;4.50;;;2.28;;
31660;SDS011;18267;52.234;7.444;2023-05-14T09:33:42;2.50;;;2.28;;
31660;SDS011;18267;52.234;7.444;2023-05-14T09:36:15;2.20;;;2.00;;
31660;SDS011;18267;52.234;7.444;2023-05-14T09:38:41;2.22;;;1.90;;
31660;SDS011;18267;52.234;7.444;2023-05-14T09:41:07;1.75;;;1.60;;
31660;SDS011;18267;52.234;7.444;2023-05-14T09:43:32;3.20;;;2.00;;
31660;SDS011;18267;52.234;7.444;2023-05-14T09:45:58;1.67;;;1.58;;
31660;SDS011;18267;52.234;7.444;2023-05-14T09:48:24;2.22;;;1.92;;
31660;SDS011;18267;52.234;7.444;2023-05-14T09:50:49;4.07;;;2.67;;
31660;SDS011;18267;52.234;7.444;2023-05-14T09:53:16;2.50;;;1.83;;
31660;SDS011;18267;52.234;7.444;2023-05-14T09:55:42;2.03;;;1.90;;
31660;SDS011;18267;52.234;7.444;2023-05-14T09:58:09;4.88;;;1.98;;
31660;SDS011;18267;52.234;7.444;2023-05-14T10:00:37;2.58;;;2.10;;
31660;SDS011;18267;52.234;7.444;2023-05-14T10:03:06;4.05;;;2.30;;
31660;SDS011;18267;52.234;7.444;2023-05-14T10:05:35;2.10;;;1.90;;
31660;SDS011;18267;52.234;7.444;2023-05-14T10:08:08;2.53;;;1.80;;
31660;SDS011;18267;52.234;7.444;2023-05-14T10:10:38;1.60;;;1.50;;
31660;SDS011;18267;52.234;7.444;2023-05-14T10:13:04;2.10;;;1.90;;
31660;SDS011;18267;52.234;7.444;2023-05-14T10:15:38;4.07;;;2.00;;
31660;SDS011;18267;52.234;7.444;2023-05-14T10:18:09;2.80;;;2.03;;
31660;SDS011;18267;52.234;7.444;2023-05-14T10:20:37;1.98;;;1.88;;
31660;SDS011;18267;52.234;7.444;2023-05-14T10:23:04;2.45;;;2.25;;
31660;SDS011;18267;52.234;7.444;2023-05-14T10:25:31;5.90;;;2.03;;
31660;SDS011;18267;52.234;7.444;2023-05-14T10:27:58;2.53;;;2.30;;
31660;SDS011;18267;52.234;7.444;2023-05-14T10:30:25;2.25;;;2.00;;
31660;SDS011;18267;52.234;7.444;2023-05-14T10:33:04;4.82;;;2.65;;
31660;SDS011;18267;52.234;7.444;2023-05-14T10:35:31;7.80;;;2.13;;
31660;SDS011;18267;52.234;7.444;2023-05-14T10:38:28;3.97;;;2.95;;
31660;SDS011;18267;52.234;7.444;2023-05-14T10:41:05;5.75;;;2.40;;
31660;SDS011;18267;52.234;7.444;2023-05-14T10:43:37;2.88;;;2.50;;
31660;SDS011;18267;52.234;7.444;2023-05-14T10:46:04;2.92;;;2.20;;
31660;SDS011;18267;52.234;7.444;2023-05-14T10:48:31;4.13;;;2.72;;
31660;SDS011;18267;52.234;7.444;2023-05-14T10:50:57;4.40;;;2.70;;
31660;SDS011;18267;52.234;7.444;2023-05-14T10:53:31;3.42;;;2.38;;
31660;SDS011;18267;52.234;7.444;2023-05-14T10:56:05;2.50;;;2.30;;
31660;SDS011;18267;52.234;7.444;2023-05-14T10:58:42;2.88;;;2.38;;
31660;SDS011;18267;52.234;7.444;2023-05-14T11:01:09;3.88;;;2.30;;
31660;SDS011;18267;52.234;7.444;2023-05-14T11:03:43;3.80;;;2.45;;
31660;SDS011;18267;52.234;7.444;2023-05-14T11:06:11;3.53;;;2.53;;
31660;SDS011;18267;52.234;7.444;2023-05-14T11:08:38;2.70;;;2.05;;
31660;SDS011;18267;52.234;7.444;2023-05-14T11:11:04;4.00;;;2.45;;
31660;SDS011;18267;52.234;7.444;2023-05-14T11:13:30;2.67;;;2.47;;
31660;SDS011;18267;52.234;7.444;2023-05-14T11:15:58;2.85;;;2.65;;
31660;SDS011;18267;52.234;7.444;2023-05-14T11:18:26;2.95;;;2.42;;
31660;SDS011;18267;52.234;7.444;2023-05-14T11:20:53;2.78;;;2.58;;
31660;SDS011;18267;52.234;7.444;2023-05-14T11:23:22;4.43;;;2.33;;
31660;SDS011;18267;52.234;7.444;2023-05-14T11:25:50;3.40;;;2.05;;
31660;SDS011;18267;52.234;7.444;2023-05-14T11:28:20;1.95;;;1.75;;
31660;SDS011;18267;52.234;7.444;2023-05-14T11:30:47;2.17;;;1.98;;
31660;SDS011;18267;52.234;7.444;2023-05-14T11:33:14;3.40;;;2.15;;
31660;SDS011;18267;52.234;7.444;2023-05-14T11:35:40;4.10;;;2.20;;
31660;SDS011;18267;52.234;7.444;2023-05-14T11:38:19;2.28;;;1.98;;
31660;SDS011;18267;52.234;7.444;2023-05-14T11:40:55;2.70;;;2.25;;
31660;SDS011;18267;52.234;7.444;2023-05-14T11:43:22;2.00;;;1.80;;
31660;SDS011;18267;52.234;7.444;2023-05-14T11:45:51;2.03;;;1.88;;
31660;SDS011;18267;52.234;7.444;2023-05-14T11:48:18;8.00;;;3.63;;
31660;SDS011;18267;52.234;7.444;2023-05-14T11:50:47;9.02;;;2.45;;
31660;SDS011;18267;52.234;7.444;2023-05-14T11:53:15;5.57;;;1.70;;
31660;SDS011;18267;52.234;7.444;2023-05-14T11:55:48;1.80;;;1.70;;
31660;SDS011;18267;52.234;7.444;2023-05-14T11:58:14;6.38;;;2.80;;
31660;SDS011;18267;52.234;7.444;2023-05-14T12:00:42;1.80;;;1.70;;
31660;SDS011;18267;52.234;7.444;2023-05-14T12:03:09;2.90;;;2.08;;
31660;SDS011;18267;52.234;7.444;2023-05-14T12:05:38;2.42;;;2.22;;
31660;SDS011;18267;52.234;7.444;2023-05-14T12:08:25;5.10;;;3.00;;
31660;SDS011;18267;52.234;7.444;2023-05-14T12:10:54;1.90;;;1.77;;
31660;SDS011;18267;52.234;7.444;2023-05-14T12:13:23;2.33;;;1.65;;
31660;SDS011;18267;52.234;7.444;2023-05-14T12:15:54;3.90;;;2.35;;
31660;SDS011;18267;52.234;7.444;2023-05-14T12:18:23;2.70;;;1.88;;
31660;SDS011;18267;52.234;7.444;2023-05-14T12:20:50;2.90;;;2.10;;
31660;SDS011;18267;52.234;7.444;2023-05-14T12:23:16;2.30;;;2.10;;
31660;SDS011;18267;52.234;7.444;2023-05-14T12:25:52;5.13;;;1.98;;
31660;SDS011;18267;52.234;7.444;2023-05-14T12:28:18;3.50;;;1.80;;
31660;SDS011;18267;52.234;7.444;2023-05-14T12:30:44;2.00;;;1.80;;
31660;SDS011;18267;52.234;7.444;2023-05-14T12:33:11;1.50;;;1.40;;
31660;SDS011;18267;52.234;7.444;2023-05-14T12:35:37;1.60;;;1.50;;
31660;SDS011;18267;52.234;7.444;2023-05-14T12:38:03;2.05;;;1.80;;
31660;SDS011;18267;52.234;7.444;2023-05-14T12:40:28;5.25;;;2.47;;
31660;SDS011;18267;52.234;7.444;2023-05-14T12:42:54;2.10;;;1.65;;
31660;SDS011;18267;52.234;7.444;2023-05-14T12:45:20;2.63;;;2.05;;
31660;SDS011;18267;52.234;7.444;2023-05-14T12:47:45;8.98;;;3.42;;
31660;SDS011;18267;52.234;7.444;2023-05-14T12:50:11;2.13;;;1.92;;
31660;SDS011;18267;52.234;7.444;2023-05-14T12:52:37;2.58;;;1.60;;
31660;SDS011;18267;52.234;7.444;2023-05-14T12:55:02;2.28;;;1.73;;
31660;SDS011;18267;52.234;7.444;2023-05-14T12:57:28;2.70;;;2.28;;
31660;SDS011;18267;52.234;7.444;2023-05-14T12:59:54;4.60;;;1.92;;
31660;SDS011;18267;52.234;7.444;2023-05-14T13:02:20;7.25;;;1.75;;
31660;SDS011;18267;52.234;7.444;2023-05-14T13:04:46;5.25;;;2.08;;
31660;SDS011;18267;52.234;7.444;2023-05-14T13:07:12;2.58;;;2.17;;
31660;SDS011;18267;52.234;7.444;2023-05-14T13:09:37;1.95;;;1.75;;
31660;SDS011;18267;52.234;7.444;2023-05-14T13:12:03;2.05;;;1.85;;
31660;SDS011;18267;52.234;7.444;2023-05-14T13:14:29;2.63;;;2.20;;
31660;SDS011;18267;52.234;7.444;2023-05-14T13:16:55;5.43;;;3.40;;
31660;SDS011;18267;52.234;7.444;2023-05-14T13:19:21;3.05;;;2.75;;
31660;SDS011;18267;52.234;7.444;2023-05-14T13:21:46;3.05;;;2.45;;
31660;SDS011;18267;52.234;7.444;2023-05-14T13:24:12;7.30;;;2.45;;
31660;SDS011;18267;52.234;7.444;2023-05-14T13:26:37;4.97;;;2.85;;
31660;SDS011;18267;52.234;7.444;2023-05-14T13:29:03;4.88;;;3.25;;
31660;SDS011;18267;52.234;7.444;2023-05-14T13:31:29;8.15;;;3.70;;
31660;SDS011;18267;52.234;7.444;2023-05-14T13:33:54;3.78;;;2.90;;
31660;SDS011;18267;52.234;7.444;2023-05-14T13:36:21;3.78;;;3.50;;
31660;SDS011;18267;52.234;7.444;2023-05-14T13:38:47;3.95;;;2.15;;
31660;SDS011;18267;52.234;7.444;2023-05-14T13:41:13;2.63;;;2.00;;
31660;SDS011;18267;52.234;7.444;2023-05-14T13:43:38;2.20;;;2.00;;
31660;SDS011;18267;52.234;7.444;2023-05-14T13:46:04;2.42;;;1.95;;
31660;SDS011;18267;52.234;7.444;2023-05-14T13:48:30;3.90;;;1.83;;
31660;SDS011;18267;52.234;7.444;2023-05-14T13:50:57;3.13;;;2.15;;
31660;SDS011;18267;52.234;7.444;2023-05-14T13:53:23;4.13;;;1.67;;
31660;SDS011;18267;52.234;7.444;2023-05-14T13:55:49;3.42;;;1.95;;
31660;SDS011;18267;52.234;7.444;2023-05-14T13:58:20;3.17;;;2.58;;
31660;SDS011;18267;52.234;7.444;2023-05-14T14:00:48;17.73;;;1.98;;
31660;SDS011;18267;52.234;7.444;2023-05-14T14:03:13;1.83;;;1.70;;
31660;SDS011;18267;52.234;7.444;2023-05-14T14:05:39;1.88;;;1.77;;
31660;SDS011;18267;52.234;7.444;2023-05-14T14:08:04;3.42;;;2.03;;
31660;SDS011;18267;52.234;7.444;2023-05-14T14:10:30;5.65;;;2.38;;
31660;SDS011;18267;52.234;7.444;2023-05-14T14:12:56;3.75;;;1.92;;
31660;SDS011;18267;52.234;7.444;2023-05-14T14:15:21;2.72;;;2.00;;
31660;SDS011;18267;52.234;7.444;2023-05-14T14:17:47;2.28;;;1.60;;
31660;SDS011;18267;52.234;7.444;2023-05-14T14:20:13;4.47;;;1.85;;
31660;SDS011;18267;52.234;7.444;2023-05-14T14:22:39;1.60;;;1.50;;
31660;SDS011;18267;52.234;7.444;2023-05-14T14:25:07;5.88;;;1.73;;
31660;SDS011;18267;52.234;7.444;2023-05-14T14:27:33;2.10;;;1.80;;
31660;SDS011;18267;52.234;7.444;2023-05-14T14:30:06;2.95;;;1.92;;
31660;SDS011;18267;52.234;7.444;2023-05-14T14:32:33;2.58;;;1.73;;
31660;SDS011;18267;52.234;7.444;2023-05-14T14:34:59;1.95;;;1.75;;
31660;SDS011;18267;52.234;7.444;2023-05-14T14:37:25;2.25;;;1.75;;
31660;SDS011;18267;52.234;7.444;2023-05-14T14:39:50;1.52;;;1.42;;
31660;SDS011;18267;52.234;7.444;2023-05-14T14:42:16;3.30;;;1.63;;
31660;SDS011;18267;52.234;7.444;2023-05-14T14:44:42;2.58;;;2.10;;
31660;SDS011;18267;52.234;7.444;2023-05-14T14:47:07;3.40;;;1.83;;